sensor_id;sensor_type;location;lat;lon;timestamp;P1;durP1;ratioP1;P2;durP2;ratioP2
25950;SDS011;13748;52.240;6.002;2022-08-19T00:01:56;23.23;;;16.40;;
25950;SDS011;13748;52.240;6.002;2022-08-19T00:04:26;22.45;;;17.42;;
25950;SDS011;13748;52.240;6.002;2022-08-19T00:06:56;19.00;;;14.52;;
25950;SDS011;13748;52.240;6.002;2022-08-19T00:09:23;22.73;;;16.40;;
25950;SDS011;13748;52.240;6.002;2022-08-19T00:11:51;21.75;;;16.83;;
25950;SDS011;13748;52.240;6.002;2022-08-19T00:14:23;19.45;;;14.45;;
25950;SDS011;13748;52.240;6.002;2022-08-19T00:16:51;25.60;;;17.55;;
25950;SDS011;13748;52.240;6.002;2022-08-19T00:19:21;23.27;;;17.42;;
25950;SDS011;13748;52.240;6.002;2022-08-19T00:21:49;21.13;;;16.52;;
25950;SDS011;13748;52.240;6.002;2022-08-19T00:24:22;20.58;;;15.10;;
25950;SDS011;13748;52.240;6.002;2022-08-19T00:26:49;22.48;;;16.95;;
25950;SDS011;13748;52.240;6.002;2022-08-19T00:29:20;23.95;;;17.30;;
25950;SDS011;13748;52.240;6.002;2022-08-19T00:31:49;26.13;;;17.20;;
25950;SDS011;13748;52.240;6.002;2022-08-19T00:34:20;22.60;;;16.83;;
25950;SDS011;13748;52.240;6.002;2022-08-19T00:36:48;25.73;;;17.63;;
25950;SDS011;13748;52.240;6.002;2022-08-19T00:39:17;24.23;;;16.85;;
25950;SDS011;13748;52.240;6.002;2022-08-19T00:41:47;25.52;;;18.00;;
25950;SDS011;13748;52.240;6.002;2022-08-19T00:44:17;25.67;;;17.50;;
25950;SDS011;13748;52.240;6.002;2022-08-19T00:46:52;24.80;;;18.50;;
25950;SDS011;13748;52.240;6.002;2022-08-19T00:49:36;23.80;;;17.83;;
25950;SDS011;13748;52.240;6.002;2022-08-19T00:52:08;22.25;;;16.77;;
25950;SDS011;13748;52.240;6.002;2022-08-19T00:55:02;24.95;;;17.77;;
25950;SDS011;13748;52.240;6.002;2022-08-19T00:57:38;25.75;;;17.60;;
25950;SDS011;13748;52.240;6.002;2022-08-19T01:00:16;24.95;;;17.40;;
25950;SDS011;13748;52.240;6.002;2022-08-19T01:02:45;27.48;;;18.92;;
25950;SDS011;13748;52.240;6.002;2022-08-19T01:05:18;29.40;;;18.65;;
25950;SDS011;13748;52.240;6.002;2022-08-19T01:07:49;24.27;;;17.38;;
25950;SDS011;13748;52.240;6.002;2022-08-19T01:10:19;24.85;;;16.88;;
25950;SDS011;13748;52.240;6.002;2022-08-19T01:12:48;26.30;;;18.02;;
25950;SDS011;13748;52.240;6.002;2022-08-19T01:15:20;23.05;;;17.50;;
25950;SDS011;13748;52.240;6.002;2022-08-19T01:17:50;25.33;;;17.88;;
25950;SDS011;13748;52.240;6.002;2022-08-19T01:20:22;26.10;;;18.95;;
25950;SDS011;13748;52.240;6.002;2022-08-19T01:22:55;29.25;;;19.52;;
25950;SDS011;13748;52.240;6.002;2022-08-19T01:25:27;26.30;;;19.15;;
25950;SDS011;13748;52.240;6.002;2022-08-19T01:28:12;27.77;;;19.88;;
25950;SDS011;13748;52.240;6.002;2022-08-19T01:30:44;26.50;;;18.88;;
25950;SDS011;13748;52.240;6.002;2022-08-19T01:33:16;27.80;;;18.67;;
25950;SDS011;13748;52.240;6.002;2022-08-19T01:35:43;32.10;;;19.50;;
25950;SDS011;13748;52.240;6.002;2022-08-19T01:38:19;26.85;;;19.15;;
25950;SDS011;13748;52.240;6.002;2022-08-19T01:40:54;27.80;;;18.55;;
25950;SDS011;13748;52.240;6.002;2022-08-19T01:43:21;24.27;;;17.13;;
25950;SDS011;13748;52.240;6.002;2022-08-19T01:45:48;26.70;;;19.25;;
25950;SDS011;13748;52.240;6.002;2022-08-19T01:48:17;26.38;;;18.52;;
25950;SDS011;13748;52.240;6.002;2022-08-19T01:50:47;24.83;;;18.55;;
25950;SDS011;13748;52.240;6.002;2022-08-19T01:53:15;27.02;;;18.48;;
25950;SDS011;13748;52.240;6.002;2022-08-19T01:55:43;26.73;;;18.90;;
25950;SDS011;13748;52.240;6.002;2022-08-19T01:58:15;24.67;;;17.92;;
25950;SDS011;13748;52.240;6.002;2022-08-19T02:00:47;21.90;;;16.65;;
25950;SDS011;13748;52.240;6.002;2022-08-19T02:03:15;24.80;;;18.88;;
25950;SDS011;13748;52.240;6.002;2022-08-19T02:05:42;26.05;;;17.25;;
25950;SDS011;13748;52.240;6.002;2022-08-19T02:08:10;23.15;;;16.52;;
25950;SDS011;13748;52.240;6.002;2022-08-19T02:10:41;17.25;;;13.98;;
25950;SDS011;13748;52.240;6.002;2022-08-19T02:13:13;21.75;;;15.55;;
25950;SDS011;13748;52.240;6.002;2022-08-19T02:15:40;20.77;;;16.42;;
25950;SDS011;13748;52.240;6.002;2022-08-19T02:18:07;24.65;;;16.70;;
25950;SDS011;13748;52.240;6.002;2022-08-19T02:20:35;20.48;;;15.50;;
25950;SDS011;13748;52.240;6.002;2022-08-19T02:23:03;20.55;;;14.85;;
25950;SDS011;13748;52.240;6.002;2022-08-19T02:25:39;22.50;;;16.30;;
25950;SDS011;13748;52.240;6.002;2022-08-19T02:28:08;20.83;;;15.80;;
25950;SDS011;13748;52.240;6.002;2022-08-19T02:30:35;21.88;;;14.70;;
25950;SDS011;13748;52.240;6.002;2022-08-19T02:33:02;20.35;;;15.05;;
25950;SDS011;13748;52.240;6.002;2022-08-19T02:35:36;19.70;;;14.60;;
25950;SDS011;13748;52.240;6.002;2022-08-19T02:38:03;18.08;;;13.65;;
25950;SDS011;13748;52.240;6.002;2022-08-19T02:40:49;21.23;;;14.98;;
25950;SDS011;13748;52.240;6.002;2022-08-19T02:43:24;19.77;;;14.82;;
25950;SDS011;13748;52.240;6.002;2022-08-19T02:45:52;18.67;;;14.27;;
25950;SDS011;13748;52.240;6.002;2022-08-19T02:48:21;20.13;;;15.05;;
25950;SDS011;13748;52.240;6.002;2022-08-19T02:50:51;20.58;;;14.75;;
25950;SDS011;13748;52.240;6.002;2022-08-19T02:53:24;20.73;;;14.52;;
25950;SDS011;13748;52.240;6.002;2022-08-19T02:55:53;19.23;;;14.15;;
25950;SDS011;13748;52.240;6.002;2022-08-19T02:58:21;20.88;;;14.68;;
25950;SDS011;13748;52.240;6.002;2022-08-19T03:00:52;18.05;;;13.45;;
25950;SDS011;13748;52.240;6.002;2022-08-19T03:03:20;19.40;;;13.98;;
25950;SDS011;13748;52.240;6.002;2022-08-19T03:06:09;24.20;;;15.52;;
25950;SDS011;13748;52.240;6.002;2022-08-19T03:08:42;19.23;;;13.82;;
25950;SDS011;13748;52.240;6.002;2022-08-19T03:11:14;21.90;;;15.93;;
25950;SDS011;13748;52.240;6.002;2022-08-19T03:13:45;19.80;;;14.75;;
25950;SDS011;13748;52.240;6.002;2022-08-19T03:16:15;18.83;;;14.80;;
25950;SDS011;13748;52.240;6.002;2022-08-19T03:18:43;21.80;;;15.25;;
25950;SDS011;13748;52.240;6.002;2022-08-19T03:21:14;20.35;;;15.15;;
25950;SDS011;13748;52.240;6.002;2022-08-19T03:23:44;23.10;;;15.60;;
25950;SDS011;13748;52.240;6.002;2022-08-19T03:26:15;22.23;;;15.48;;
25950;SDS011;13748;52.240;6.002;2022-08-19T03:28:46;19.20;;;14.27;;
25950;SDS011;13748;52.240;6.002;2022-08-19T03:31:23;19.08;;;13.57;;
25950;SDS011;13748;52.240;6.002;2022-08-19T03:34:10;18.70;;;13.30;;
25950;SDS011;13748;52.240;6.002;2022-08-19T03:36:40;20.80;;;12.93;;
25950;SDS011;13748;52.240;6.002;2022-08-19T03:39:09;18.13;;;13.15;;
25950;SDS011;13748;52.240;6.002;2022-08-19T03:41:37;21.83;;;12.10;;
25950;SDS011;13748;52.240;6.002;2022-08-19T03:44:15;21.05;;;13.13;;
25950;SDS011;13748;52.240;6.002;2022-08-19T03:46:47;17.23;;;12.32;;
25950;SDS011;13748;52.240;6.002;2022-08-19T03:49:20;18.88;;;12.55;;
25950;SDS011;13748;52.240;6.002;2022-08-19T03:51:54;19.90;;;13.77;;
25950;SDS011;13748;52.240;6.002;2022-08-19T03:54:23;22.05;;;13.35;;
25950;SDS011;13748;52.240;6.002;2022-08-19T03:56:53;20.10;;;13.95;;
25950;SDS011;13748;52.240;6.002;2022-08-19T03:59:22;22.23;;;14.20;;
25950;SDS011;13748;52.240;6.002;2022-08-19T04:01:56;19.17;;;12.95;;
25950;SDS011;13748;52.240;6.002;2022-08-19T04:04:25;18.67;;;12.73;;
25950;SDS011;13748;52.240;6.002;2022-08-19T04:06:55;19.67;;;13.13;;
25950;SDS011;13748;52.240;6.002;2022-08-19T04:09:22;21.10;;;13.88;;
25950;SDS011;13748;52.240;6.002;2022-08-19T04:11:51;20.08;;;13.43;;
25950;SDS011;13748;52.240;6.002;2022-08-19T04:14:23;20.52;;;13.02;;
25950;SDS011;13748;52.240;6.002;2022-08-19T04:16:53;18.75;;;12.52;;
25950;SDS011;13748;52.240;6.002;2022-08-19T04:19:20;20.00;;;13.27;;
25950;SDS011;13748;52.240;6.002;2022-08-19T04:21:50;17.40;;;12.50;;
25950;SDS011;13748;52.240;6.002;2022-08-19T04:24:18;21.27;;;12.83;;
25950;SDS011;13748;52.240;6.002;2022-08-19T04:26:47;18.55;;;12.85;;
25950;SDS011;13748;52.240;6.002;2022-08-19T04:29:17;20.00;;;14.23;;
25950;SDS011;13748;52.240;6.002;2022-08-19T04:31:48;19.60;;;12.05;;
25950;SDS011;13748;52.240;6.002;2022-08-19T04:34:19;17.67;;;12.10;;
25950;SDS011;13748;52.240;6.002;2022-08-19T04:36:51;18.10;;;12.53;;
25950;SDS011;13748;52.240;6.002;2022-08-19T04:39:21;18.00;;;13.23;;
25950;SDS011;13748;52.240;6.002;2022-08-19T04:42:10;18.83;;;13.30;;
25950;SDS011;13748;52.240;6.002;2022-08-19T04:45:00;16.97;;;12.40;;
25950;SDS011;13748;52.240;6.002;2022-08-19T04:47:30;18.43;;;12.97;;
25950;SDS011;13748;52.240;6.002;2022-08-19T04:50:17;19.47;;;13.20;;
25950;SDS011;13748;52.240;6.002;2022-08-19T04:52:44;18.20;;;13.27;;
25950;SDS011;13748;52.240;6.002;2022-08-19T04:55:12;18.57;;;12.87;;
25950;SDS011;13748;52.240;6.002;2022-08-19T04:57:41;20.63;;;13.27;;
25950;SDS011;13748;52.240;6.002;2022-08-19T05:00:08;20.20;;;14.50;;
25950;SDS011;13748;52.240;6.002;2022-08-19T05:02:36;24.65;;;14.88;;
25950;SDS011;13748;52.240;6.002;2022-08-19T05:05:04;22.03;;;14.70;;
25950;SDS011;13748;52.240;6.002;2022-08-19T05:07:33;19.87;;;14.63;;
25950;SDS011;13748;52.240;6.002;2022-08-19T05:10:00;19.00;;;13.83;;
25950;SDS011;13748;52.240;6.002;2022-08-19T05:12:28;18.00;;;13.17;;
25950;SDS011;13748;52.240;6.002;2022-08-19T05:14:56;20.27;;;14.90;;
25950;SDS011;13748;52.240;6.002;2022-08-19T05:17:25;22.37;;;13.63;;
25950;SDS011;13748;52.240;6.002;2022-08-19T05:19:57;21.03;;;14.57;;
25950;SDS011;13748;52.240;6.002;2022-08-19T05:22:54;23.13;;;15.73;;
25950;SDS011;13748;52.240;6.002;2022-08-19T05:25:21;22.73;;;14.97;;
25950;SDS011;13748;52.240;6.002;2022-08-19T05:27:49;23.90;;;15.90;;
25950;SDS011;13748;52.240;6.002;2022-08-19T05:30:16;23.67;;;14.97;;
25950;SDS011;13748;52.240;6.002;2022-08-19T05:33:04;21.03;;;14.20;;
25950;SDS011;13748;52.240;6.002;2022-08-19T05:35:38;20.17;;;13.88;;
25950;SDS011;13748;52.240;6.002;2022-08-19T05:38:07;19.13;;;13.57;;
25950;SDS011;13748;52.240;6.002;2022-08-19T05:40:35;19.83;;;14.07;;
25950;SDS011;13748;52.240;6.002;2022-08-19T05:43:03;21.70;;;14.45;;
25950;SDS011;13748;52.240;6.002;2022-08-19T05:45:31;19.73;;;14.27;;
25950;SDS011;13748;52.240;6.002;2022-08-19T05:47:59;20.55;;;14.40;;
25950;SDS011;13748;52.240;6.002;2022-08-19T05:50:25;19.48;;;14.73;;
25950;SDS011;13748;52.240;6.002;2022-08-19T05:52:57;23.23;;;16.10;;
25950;SDS011;13748;52.240;6.002;2022-08-19T05:55:25;25.73;;;17.77;;
25950;SDS011;13748;52.240;6.002;2022-08-19T05:57:51;24.20;;;17.73;;
25950;SDS011;13748;52.240;6.002;2022-08-19T06:00:18;26.73;;;19.35;;
25950;SDS011;13748;52.240;6.002;2022-08-19T06:02:49;29.25;;;20.23;;
25950;SDS011;13748;52.240;6.002;2022-08-19T06:05:17;30.17;;;19.55;;
25950;SDS011;13748;52.240;6.002;2022-08-19T06:07:46;30.00;;;20.17;;
25950;SDS011;13748;52.240;6.002;2022-08-19T06:10:13;32.42;;;21.77;;
25950;SDS011;13748;52.240;6.002;2022-08-19T06:12:40;31.45;;;21.02;;
25950;SDS011;13748;52.240;6.002;2022-08-19T06:15:09;31.77;;;20.85;;
25950;SDS011;13748;52.240;6.002;2022-08-19T06:17:44;24.83;;;17.88;;
25950;SDS011;13748;52.240;6.002;2022-08-19T06:20:38;25.73;;;18.58;;
25950;SDS011;13748;52.240;6.002;2022-08-19T06:23:27;20.85;;;16.27;;
25950;SDS011;13748;52.240;6.002;2022-08-19T06:26:07;23.38;;;16.25;;
25950;SDS011;13748;52.240;6.002;2022-08-19T06:29:18;21.35;;;16.08;;
25950;SDS011;13748;52.240;6.002;2022-08-19T06:39:43;21.13;;;15.95;;
25950;SDS011;13748;52.240;6.002;2022-08-19T06:45:07;20.42;;;15.30;;
25950;SDS011;13748;52.240;6.002;2022-08-19T06:47:50;17.33;;;15.40;;
25950;SDS011;13748;52.240;6.002;2022-08-19T06:50:20;19.23;;;16.38;;
25950;SDS011;13748;52.240;6.002;2022-08-19T06:52:50;17.15;;;15.30;;
25950;SDS011;13748;52.240;6.002;2022-08-19T06:55:18;17.98;;;14.98;;
25950;SDS011;13748;52.240;6.002;2022-08-19T06:57:45;16.85;;;13.73;;
25950;SDS011;13748;52.240;6.002;2022-08-19T07:00:12;16.58;;;13.75;;
25950;SDS011;13748;52.240;6.002;2022-08-19T07:02:42;14.13;;;12.73;;
25950;SDS011;13748;52.240;6.002;2022-08-19T07:05:23;16.25;;;14.27;;
25950;SDS011;13748;52.240;6.002;2022-08-19T07:07:50;19.88;;;14.40;;
25950;SDS011;13748;52.240;6.002;2022-08-19T07:10:34;18.17;;;14.43;;
25950;SDS011;13748;52.240;6.002;2022-08-19T07:13:17;17.83;;;15.35;;
25950;SDS011;13748;52.240;6.002;2022-08-19T07:25:58;23.02;;;18.42;;
25950;SDS011;13748;52.240;6.002;2022-08-19T07:29:08;24.90;;;17.92;;
25950;SDS011;13748;52.240;6.002;2022-08-19T07:31:41;27.70;;;21.70;;
25950;SDS011;13748;52.240;6.002;2022-08-19T07:38:08;24.85;;;20.65;;
25950;SDS011;13748;52.240;6.002;2022-08-19T07:40:38;26.73;;;20.95;;
25950;SDS011;13748;52.240;6.002;2022-08-19T07:43:06;28.13;;;21.83;;
25950;SDS011;13748;52.240;6.002;2022-08-19T07:45:44;30.02;;;21.88;;
25950;SDS011;13748;52.240;6.002;2022-08-19T07:48:54;30.77;;;21.90;;
25950;SDS011;13748;52.240;6.002;2022-08-19T07:52:08;26.40;;;20.88;;
25950;SDS011;13748;52.240;6.002;2022-08-19T07:55:09;34.63;;;24.40;;
25950;SDS011;13748;52.240;6.002;2022-08-19T07:58:02;29.80;;;22.92;;
25950;SDS011;13748;52.240;6.002;2022-08-19T08:00:55;31.05;;;24.20;;
25950;SDS011;13748;52.240;6.002;2022-08-19T08:03:41;33.78;;;25.45;;
25950;SDS011;13748;52.240;6.002;2022-08-19T08:06:27;30.35;;;23.67;;
25950;SDS011;13748;52.240;6.002;2022-08-19T08:09:14;32.10;;;24.95;;
25950;SDS011;13748;52.240;6.002;2022-08-19T08:12:24;30.52;;;23.40;;
25950;SDS011;13748;52.240;6.002;2022-08-19T08:18:14;35.53;;;27.02;;
25950;SDS011;13748;52.240;6.002;2022-08-19T08:23:48;34.55;;;27.42;;
25950;SDS011;13748;52.240;6.002;2022-08-19T08:26:19;34.22;;;26.08;;
25950;SDS011;13748;52.240;6.002;2022-08-19T08:28:46;34.28;;;25.40;;
25950;SDS011;13748;52.240;6.002;2022-08-19T08:31:14;34.03;;;27.23;;
25950;SDS011;13748;52.240;6.002;2022-08-19T08:33:41;37.00;;;28.40;;
25950;SDS011;13748;52.240;6.002;2022-08-19T08:36:10;40.40;;;29.90;;
25950;SDS011;13748;52.240;6.002;2022-08-19T08:38:37;42.20;;;30.65;;
25950;SDS011;13748;52.240;6.002;2022-08-19T08:43:58;45.88;;;30.58;;
25950;SDS011;13748;52.240;6.002;2022-08-19T08:46:39;40.47;;;29.27;;
25950;SDS011;13748;52.240;6.002;2022-08-19T08:49:18;43.00;;;28.90;;
25950;SDS011;13748;52.240;6.002;2022-08-19T08:54:59;41.90;;;31.30;;
25950;SDS011;13748;52.240;6.002;2022-08-19T08:57:41;38.65;;;27.92;;
25950;SDS011;13748;52.240;6.002;2022-08-19T09:00:20;33.15;;;24.45;;
25950;SDS011;13748;52.240;6.002;2022-08-19T09:02:50;33.63;;;24.83;;
25950;SDS011;13748;52.240;6.002;2022-08-19T09:05:18;37.05;;;25.10;;
25950;SDS011;13748;52.240;6.002;2022-08-19T09:10:57;35.17;;;24.75;;
25950;SDS011;13748;52.240;6.002;2022-08-19T09:13:28;30.85;;;23.10;;
25950;SDS011;13748;52.240;6.002;2022-08-19T09:16:16;30.45;;;22.60;;
25950;SDS011;13748;52.240;6.002;2022-08-19T09:18:57;27.48;;;20.90;;
25950;SDS011;13748;52.240;6.002;2022-08-19T09:21:28;29.05;;;22.27;;
25950;SDS011;13748;52.240;6.002;2022-08-19T09:23:58;30.77;;;22.20;;
25950;SDS011;13748;52.240;6.002;2022-08-19T09:26:25;28.88;;;21.75;;
25950;SDS011;13748;52.240;6.002;2022-08-19T09:29:12;30.10;;;22.88;;
25950;SDS011;13748;52.240;6.002;2022-08-19T09:31:40;28.27;;;20.98;;
25950;SDS011;13748;52.240;6.002;2022-08-19T09:34:07;27.90;;;20.50;;
25950;SDS011;13748;52.240;6.002;2022-08-19T09:36:47;28.60;;;21.17;;
25950;SDS011;13748;52.240;6.002;2022-08-19T09:39:21;27.58;;;21.00;;
25950;SDS011;13748;52.240;6.002;2022-08-19T09:41:49;27.48;;;21.30;;
25950;SDS011;13748;52.240;6.002;2022-08-19T09:44:19;26.98;;;21.00;;
25950;SDS011;13748;52.240;6.002;2022-08-19T09:46:48;31.58;;;22.10;;
25950;SDS011;13748;52.240;6.002;2022-08-19T09:49:16;27.30;;;20.30;;
25950;SDS011;13748;52.240;6.002;2022-08-19T09:51:44;27.27;;;20.40;;
25950;SDS011;13748;52.240;6.002;2022-08-19T09:54:16;21.65;;;16.92;;
25950;SDS011;13748;52.240;6.002;2022-08-19T09:56:50;20.58;;;17.05;;
25950;SDS011;13748;52.240;6.002;2022-08-19T09:59:18;21.80;;;16.95;;
25950;SDS011;13748;52.240;6.002;2022-08-19T10:01:46;28.08;;;20.73;;
25950;SDS011;13748;52.240;6.002;2022-08-19T10:04:13;21.33;;;17.55;;
25950;SDS011;13748;52.240;6.002;2022-08-19T10:06:47;22.10;;;17.73;;
25950;SDS011;13748;52.240;6.002;2022-08-19T10:09:19;24.63;;;19.02;;
25950;SDS011;13748;52.240;6.002;2022-08-19T10:12:02;22.90;;;16.73;;
25950;SDS011;13748;52.240;6.002;2022-08-19T10:14:31;27.20;;;20.70;;
25950;SDS011;13748;52.240;6.002;2022-08-19T10:17:00;27.08;;;20.02;;
25950;SDS011;13748;52.240;6.002;2022-08-19T10:19:49;29.20;;;22.60;;
25950;SDS011;13748;52.240;6.002;2022-08-19T10:22:21;29.02;;;21.67;;
25950;SDS011;13748;52.240;6.002;2022-08-19T10:24:50;26.25;;;19.70;;
25950;SDS011;13748;52.240;6.002;2022-08-19T10:27:18;19.65;;;14.65;;
25950;SDS011;13748;52.240;6.002;2022-08-19T10:29:45;19.20;;;14.48;;
25950;SDS011;13748;52.240;6.002;2022-08-19T10:32:14;24.55;;;17.42;;
25950;SDS011;13748;52.240;6.002;2022-08-19T10:34:41;17.90;;;13.35;;
25950;SDS011;13748;52.240;6.002;2022-08-19T10:37:14;19.67;;;12.65;;
25950;SDS011;13748;52.240;6.002;2022-08-19T10:39:54;19.95;;;14.77;;
25950;SDS011;13748;52.240;6.002;2022-08-19T10:42:21;19.77;;;14.13;;
25950;SDS011;13748;52.240;6.002;2022-08-19T10:44:48;17.95;;;14.18;;
25950;SDS011;13748;52.240;6.002;2022-08-19T10:47:17;17.40;;;12.15;;
25950;SDS011;13748;52.240;6.002;2022-08-19T10:50:00;15.70;;;12.25;;
25950;SDS011;13748;52.240;6.002;2022-08-19T10:53:15;15.75;;;12.70;;
25950;SDS011;13748;52.240;6.002;2022-08-19T10:56:22;18.05;;;12.07;;
25950;SDS011;13748;52.240;6.002;2022-08-19T10:59:38;24.00;;;16.08;;
25950;SDS011;13748;52.240;6.002;2022-08-19T11:02:45;20.83;;;15.30;;
25950;SDS011;13748;52.240;6.002;2022-08-19T11:05:45;19.88;;;14.90;;
25950;SDS011;13748;52.240;6.002;2022-08-19T11:08:54;18.00;;;13.15;;
25950;SDS011;13748;52.240;6.002;2022-08-19T11:11:21;20.60;;;15.27;;
25950;SDS011;13748;52.240;6.002;2022-08-19T11:13:58;19.55;;;15.02;;
25950;SDS011;13748;52.240;6.002;2022-08-19T11:17:13;19.00;;;14.38;;
25950;SDS011;13748;52.240;6.002;2022-08-19T11:19:51;17.23;;;13.45;;
25950;SDS011;13748;52.240;6.002;2022-08-19T11:22:34;16.08;;;12.48;;
25950;SDS011;13748;52.240;6.002;2022-08-19T11:28:55;15.45;;;11.55;;
25950;SDS011;13748;52.240;6.002;2022-08-19T11:36:33;13.35;;;10.60;;
25950;SDS011;13748;52.240;6.002;2022-08-19T11:39:01;13.75;;;9.52;;
25950;SDS011;13748;52.240;6.002;2022-08-19T11:41:30;14.85;;;11.25;;
25950;SDS011;13748;52.240;6.002;2022-08-19T11:43:57;15.73;;;10.95;;
25950;SDS011;13748;52.240;6.002;2022-08-19T11:46:25;16.10;;;11.30;;
25950;SDS011;13748;52.240;6.002;2022-08-19T11:48:53;15.70;;;12.32;;
25950;SDS011;13748;52.240;6.002;2022-08-19T11:51:22;15.68;;;11.50;;
25950;SDS011;13748;52.240;6.002;2022-08-19T11:53:53;15.35;;;11.82;;
25950;SDS011;13748;52.240;6.002;2022-08-19T11:56:22;16.10;;;13.32;;
25950;SDS011;13748;52.240;6.002;2022-08-19T11:58:51;19.20;;;14.80;;
25950;SDS011;13748;52.240;6.002;2022-08-19T12:01:19;17.52;;;13.30;;
25950;SDS011;13748;52.240;6.002;2022-08-19T12:03:49;13.00;;;10.98;;
25950;SDS011;13748;52.240;6.002;2022-08-19T12:06:19;15.27;;;11.88;;
25950;SDS011;13748;52.240;6.002;2022-08-19T12:08:51;15.13;;;11.00;;
25950;SDS011;13748;52.240;6.002;2022-08-19T12:11:18;11.75;;;9.35;;
25950;SDS011;13748;52.240;6.002;2022-08-19T12:13:45;12.68;;;9.50;;
25950;SDS011;13748;52.240;6.002;2022-08-19T12:16:24;12.00;;;8.63;;
25950;SDS011;13748;52.240;6.002;2022-08-19T12:22:28;13.35;;;10.48;;
25950;SDS011;13748;52.240;6.002;2022-08-19T12:25:28;9.48;;;8.07;;
25950;SDS011;13748;52.240;6.002;2022-08-19T12:35:14;14.68;;;10.30;;
25950;SDS011;13748;52.240;6.002;2022-08-19T12:37:48;14.07;;;10.35;;
25950;SDS011;13748;52.240;6.002;2022-08-19T12:40:22;10.60;;;8.48;;
25950;SDS011;13748;52.240;6.002;2022-08-19T12:42:51;10.80;;;7.82;;
25950;SDS011;13748;52.240;6.002;2022-08-19T12:45:19;9.07;;;7.60;;
25950;SDS011;13748;52.240;6.002;2022-08-19T12:47:46;9.77;;;6.75;;
25950;SDS011;13748;52.240;6.002;2022-08-19T12:50:14;10.60;;;8.80;;
25950;SDS011;13748;52.240;6.002;2022-08-19T12:52:41;10.30;;;9.00;;
25950;SDS011;13748;52.240;6.002;2022-08-19T12:55:09;12.85;;;9.40;;
25950;SDS011;13748;52.240;6.002;2022-08-19T12:57:37;14.90;;;10.10;;
25950;SDS011;13748;52.240;6.002;2022-08-19T13:00:08;12.07;;;8.82;;
25950;SDS011;13748;52.240;6.002;2022-08-19T13:02:39;11.85;;;10.00;;
25950;SDS011;13748;52.240;6.002;2022-08-19T13:05:08;11.35;;;8.10;;
25950;SDS011;13748;52.240;6.002;2022-08-19T13:07:38;11.70;;;7.78;;
25950;SDS011;13748;52.240;6.002;2022-08-19T13:10:08;9.82;;;8.05;;
25950;SDS011;13748;52.240;6.002;2022-08-19T13:12:35;9.55;;;8.07;;
25950;SDS011;13748;52.240;6.002;2022-08-19T13:15:03;10.13;;;7.28;;
25950;SDS011;13748;52.240;6.002;2022-08-19T13:17:40;8.48;;;7.57;;
25950;SDS011;13748;52.240;6.002;2022-08-19T13:20:10;10.93;;;8.23;;
25950;SDS011;13748;52.240;6.002;2022-08-19T13:22:37;10.90;;;7.60;;
25950;SDS011;13748;52.240;6.002;2022-08-19T13:25:05;9.77;;;8.02;;
25950;SDS011;13748;52.240;6.002;2022-08-19T13:27:33;10.95;;;8.25;;
25950;SDS011;13748;52.240;6.002;2022-08-19T13:30:00;10.95;;;8.57;;
25950;SDS011;13748;52.240;6.002;2022-08-19T13:32:47;11.32;;;9.15;;
25950;SDS011;13748;52.240;6.002;2022-08-19T13:35:32;11.35;;;8.63;;
25950;SDS011;13748;52.240;6.002;2022-08-19T13:37:59;10.95;;;9.05;;
25950;SDS011;13748;52.240;6.002;2022-08-19T13:40:37;13.73;;;8.98;;
25950;SDS011;13748;52.240;6.002;2022-08-19T13:43:06;8.95;;;8.05;;
25950;SDS011;13748;52.240;6.002;2022-08-19T13:45:48;10.65;;;8.82;;
25950;SDS011;13748;52.240;6.002;2022-08-19T13:48:17;9.77;;;8.45;;
25950;SDS011;13748;52.240;6.002;2022-08-19T13:50:44;11.77;;;8.95;;
25950;SDS011;13748;52.240;6.002;2022-08-19T13:53:13;11.20;;;9.02;;
25950;SDS011;13748;52.240;6.002;2022-08-19T13:55:41;18.05;;;13.82;;
25950;SDS011;13748;52.240;6.002;2022-08-19T13:58:09;20.50;;;15.43;;
25950;SDS011;13748;52.240;6.002;2022-08-19T14:00:38;15.45;;;13.85;;
25950;SDS011;13748;52.240;6.002;2022-08-19T14:03:08;14.25;;;12.32;;
25950;SDS011;13748;52.240;6.002;2022-08-19T14:05:35;15.85;;;12.40;;
25950;SDS011;13748;52.240;6.002;2022-08-19T14:08:02;12.70;;;10.52;;
25950;SDS011;13748;52.240;6.002;2022-08-19T14:10:29;11.02;;;9.50;;
25950;SDS011;13748;52.240;6.002;2022-08-19T14:12:58;12.05;;;9.02;;
25950;SDS011;13748;52.240;6.002;2022-08-19T14:15:26;11.95;;;9.30;;
25950;SDS011;13748;52.240;6.002;2022-08-19T14:17:54;10.98;;;9.30;;
25950;SDS011;13748;52.240;6.002;2022-08-19T14:20:22;10.48;;;9.38;;
25950;SDS011;13748;52.240;6.002;2022-08-19T14:22:54;10.82;;;8.32;;
25950;SDS011;13748;52.240;6.002;2022-08-19T14:25:23;10.88;;;8.75;;
25950;SDS011;13748;52.240;6.002;2022-08-19T14:27:51;11.23;;;9.57;;
25950;SDS011;13748;52.240;6.002;2022-08-19T14:30:20;11.45;;;9.93;;
25950;SDS011;13748;52.240;6.002;2022-08-19T14:32:53;16.00;;;14.23;;
25950;SDS011;13748;52.240;6.002;2022-08-19T14:35:21;21.38;;;16.02;;
25950;SDS011;13748;52.240;6.002;2022-08-19T14:37:49;22.88;;;17.70;;
25950;SDS011;13748;52.240;6.002;2022-08-19T14:40:22;25.13;;;17.00;;
25950;SDS011;13748;52.240;6.002;2022-08-19T14:42:55;21.40;;;17.30;;
25950;SDS011;13748;52.240;6.002;2022-08-19T14:45:26;24.85;;;18.20;;
25950;SDS011;13748;52.240;6.002;2022-08-19T14:47:54;29.38;;;20.85;;
25950;SDS011;13748;52.240;6.002;2022-08-19T14:50:21;24.20;;;19.08;;
25950;SDS011;13748;52.240;6.002;2022-08-19T14:52:49;16.77;;;14.13;;
25950;SDS011;13748;52.240;6.002;2022-08-19T14:55:16;15.85;;;12.88;;
25950;SDS011;13748;52.240;6.002;2022-08-19T14:57:44;17.88;;;13.38;;
25950;SDS011;13748;52.240;6.002;2022-08-19T15:00:11;15.50;;;12.75;;
25950;SDS011;13748;52.240;6.002;2022-08-19T15:02:40;26.25;;;16.40;;
25950;SDS011;13748;52.240;6.002;2022-08-19T15:05:07;26.95;;;20.25;;
25950;SDS011;13748;52.240;6.002;2022-08-19T15:07:35;26.65;;;21.33;;
25950;SDS011;13748;52.240;6.002;2022-08-19T15:10:03;28.83;;;23.08;;
25950;SDS011;13748;52.240;6.002;2022-08-19T15:12:31;30.35;;;24.60;;
25950;SDS011;13748;52.240;6.002;2022-08-19T15:14:58;35.97;;;27.23;;
25950;SDS011;13748;52.240;6.002;2022-08-19T15:17:25;31.23;;;26.15;;
25950;SDS011;13748;52.240;6.002;2022-08-19T15:20:13;33.88;;;27.52;;
25950;SDS011;13748;52.240;6.002;2022-08-19T15:22:42;31.92;;;25.58;;
25950;SDS011;13748;52.240;6.002;2022-08-19T15:25:09;29.55;;;26.33;;
25950;SDS011;13748;52.240;6.002;2022-08-19T15:27:38;32.83;;;26.92;;
25950;SDS011;13748;52.240;6.002;2022-08-19T15:30:09;35.17;;;28.17;;
25950;SDS011;13748;52.240;6.002;2022-08-19T15:32:37;36.20;;;28.48;;
25950;SDS011;13748;52.240;6.002;2022-08-19T15:35:05;34.15;;;28.45;;
25950;SDS011;13748;52.240;6.002;2022-08-19T15:37:33;30.98;;;25.83;;
25950;SDS011;13748;52.240;6.002;2022-08-19T15:40:03;35.80;;;29.77;;
25950;SDS011;13748;52.240;6.002;2022-08-19T15:42:34;34.15;;;27.42;;
25950;SDS011;13748;52.240;6.002;2022-08-19T15:45:03;30.38;;;25.92;;
25950;SDS011;13748;52.240;6.002;2022-08-19T15:47:31;31.55;;;25.52;;
25950;SDS011;13748;52.240;6.002;2022-08-19T15:50:12;32.72;;;25.48;;
25950;SDS011;13748;52.240;6.002;2022-08-19T15:52:46;30.10;;;24.63;;
25950;SDS011;13748;52.240;6.002;2022-08-19T15:55:20;27.80;;;23.25;;
25950;SDS011;13748;52.240;6.002;2022-08-19T15:58:02;31.75;;;24.00;;